Time;durP1;ratioP1;P1;durP2;ratioP2;P2;SDS_P1;SDS_P2;PMS_P1;PMS_P2;Temp;Humidity;BMP_temperature;BMP_pressure;BME280_temperature;BME280_humidity;BME280_pressure;Samples;Min_cycle;Max_cycle;Signal;HPM_P1;HPM_P2
2022/11/19 00:02:02;;;;;;;9.10;4.93;;;-4.00;99.90;;;;;;5002348;28;20858;-77
2022/11/19 00:04:29;;;;;;;6.63;4.53;;;-4.10;99.90;;;;;;4999864;28;20687;-77
2022/11/19 00:06:55;;;;;;;8.50;4.83;;;-4.20;99.90;;;;;;5005632;28;20215;-77
2022/11/19 00:09:23;;;;;;;8.63;5.23;;;-4.20;99.90;;;;;;4998295;28;20815;-77
2022/11/19 00:14:34;;;;;;;7.27;4.73;;;-4.30;99.90;;;;;;4998976;28;20589;-77
2022/11/19 00:17:01;;;;;;;5.57;4.30;;;-4.30;99.90;;;;;;5011714;28;20209;-77
2022/11/19 00:19:27;;;;;;;7.67;4.77;;;-4.40;99.90;;;;;;5010510;28;20232;-77
2022/11/19 00:21:54;;;;;;;31.27;7.67;;;-4.40;99.90;;;;;;5015271;28;20918;-76
2022/11/19 00:24:22;;;;;;;8.83;6.00;;;-4.40;99.90;;;;;;5000899;28;20849;-77
2022/11/19 00:26:49;;;;;;;9.67;5.67;;;-4.40;99.90;;;;;;5001289;28;20746;-77
2022/11/19 00:29:16;;;;;;;7.90;5.10;;;-4.50;99.90;;;;;;5006375;28;20319;-77
2022/11/19 00:31:42;;;;;;;12.50;5.90;;;-4.50;99.90;;;;;;5013400;28;20231;-76
2022/11/19 00:34:10;;;;;;;9.00;5.30;;;-4.50;99.90;;;;;;5007811;28;20313;-76
2022/11/19 00:36:37;;;;;;;8.20;5.70;;;-4.50;99.90;;;;;;5001525;28;20233;-76
2022/11/19 00:39:04;;;;;;;9.87;5.40;;;-4.50;99.90;;;;;;5005522;28;20253;-77
2022/11/19 00:41:32;;;;;;;8.10;5.50;;;-4.50;99.90;;;;;;5001693;28;20232;-76
2022/11/19 00:43:59;;;;;;;9.37;4.63;;;-4.60;99.90;;;;;;5011114;28;20223;-76
2022/11/19 00:46:27;;;;;;;6.93;4.70;;;-4.60;99.90;;;;;;5006413;28;20256;-76
2022/11/19 00:48:55;;;;;;;7.47;4.70;;;-4.60;99.90;;;;;;5008902;28;20226;-76
2022/11/19 00:51:23;;;;;;;7.13;5.00;;;-4.60;99.90;;;;;;5008149;28;20293;-76
2022/11/19 00:53:50;;;;;;;7.93;5.40;;;-4.70;99.90;;;;;;5002686;28;20228;-76
2022/11/19 00:56:20;;;;;;;7.07;4.37;;;-4.70;99.90;;;;;;5008681;28;20823;-76
2022/11/19 00:58:48;;;;;;;7.70;4.70;;;-4.70;99.90;;;;;;5010521;28;20236;-76
2022/11/19 01:01:19;;;;;;;8.93;5.57;;;-4.70;99.90;;;;;;5003247;28;20238;-76
2022/11/19 01:03:46;;;;;;;6.37;4.50;;;-4.80;99.90;;;;;;5012007;28;20234;-77
2022/11/19 01:06:15;;;;;;;6.63;4.63;;;-4.80;99.90;;;;;;5001911;28;20227;-77
2022/11/19 01:08:41;;;;;;;6.87;4.43;;;-4.80;99.90;;;;;;5007031;28;20214;-77
2022/11/19 01:11:10;;;;;;;7.50;5.10;;;-4.90;99.90;;;;;;5001821;28;20228;-76
2022/11/19 01:13:37;;;;;;;7.40;4.17;;;-4.90;99.90;;;;;;5002181;28;20637;-77
2022/11/19 01:16:08;;;;;;;7.00;4.40;;;-4.90;99.90;;;;;;5007121;28;20229;-76
2022/11/19 01:18:35;;;;;;;6.47;4.47;;;-5.00;99.90;;;;;;4996405;28;20228;-76
2022/11/19 01:21:03;;;;;;;6.90;4.37;;;-5.00;99.90;;;;;;5003475;28;20240;-76
2022/11/19 01:23:29;;;;;;;7.03;4.80;;;-5.00;99.90;;;;;;5005476;28;20310;-76
2022/11/19 01:25:56;;;;;;;7.00;4.30;;;-5.00;99.90;;;;;;5012880;28;20754;-76
2022/11/19 01:28:23;;;;;;;7.23;4.50;;;-5.10;99.90;;;;;;5004721;28;20223;-76
2022/11/19 01:30:49;;;;;;;7.53;5.00;;;-5.10;99.90;;;;;;5004344;28;20228;-76
2022/11/19 01:33:18;;;;;;;10.17;5.43;;;-5.20;99.90;;;;;;4999318;28;20234;-76
2022/11/19 01:35:53;;;;;;;7.70;5.20;;;-5.20;99.90;;;;;;5002238;28;20315;-77
2022/11/19 01:38:20;;;;;;;9.10;5.20;;;-5.30;99.90;;;;;;5002921;28;20230;-76
2022/11/19 01:40:47;;;;;;;7.57;5.47;;;-5.30;99.90;;;;;;5004493;28;20536;-76
2022/11/19 01:43:14;;;;;;;11.07;6.20;;;-5.30;99.90;;;;;;4998527;28;20235;-76
2022/11/19 01:45:42;;;;;;;9.77;5.97;;;-5.30;99.90;;;;;;5004608;28;20312;-78
2022/11/19 01:48:13;;;;;;;10.97;6.03;;;-5.40;99.90;;;;;;5004442;28;20219;-78
2022/11/19 01:50:47;;;;;;;8.93;5.60;;;-5.40;99.90;;;;;;5003685;28;20231;-77
2022/11/19 01:53:14;;;;;;;9.80;6.17;;;-5.40;99.90;;;;;;5003702;28;20229;-78
2022/11/19 01:55:42;;;;;;;9.33;6.70;;;-5.40;99.90;;;;;;5006088;28;20604;-77
2022/11/19 01:58:10;;;;;;;11.17;7.00;;;-5.50;99.90;;;;;;4998470;28;20225;-77
2022/11/19 02:00:37;;;;;;;10.90;7.03;;;-5.50;99.90;;;;;;5003099;28;20255;-76
2022/11/19 02:03:03;;;;;;;12.67;8.20;;;-5.50;99.90;;;;;;5006274;28;20226;-78
2022/11/19 02:05:30;;;;;;;17.40;10.20;;;-5.50;99.90;;;;;;5008423;28;20229;-77
2022/11/19 02:07:58;;;;;;;14.90;8.63;;;-5.50;99.90;;;;;;5011387;28;20237;-77
2022/11/19 02:10:45;;;;;;;17.33;9.70;;;-5.50;99.90;;;;;;5012751;28;20944;-78
2022/11/19 02:13:20;;;;;;;13.30;8.73;;;-5.50;99.90;;;;;;5005686;28;20231;-77
2022/11/19 02:15:53;;;;;;;16.40;9.53;;;-5.50;99.90;;;;;;5012735;28;20395;-77
2022/11/19 02:18:34;;;;;;;16.63;9.30;;;-5.50;99.90;;;;;;5014324;28;20229;-77
2022/11/19 02:21:21;;;;;;;18.10;10.97;;;-5.60;99.90;;;;;;5003998;28;20223;-77
2022/11/19 02:24:12;;;;;;;19.60;11.67;;;-5.60;99.90;;;;;;5016816;28;20313;-77
2022/11/19 02:27:00;;;;;;;21.50;11.90;;;-5.60;99.90;;;;;;4994564;28;20229;-77
2022/11/19 02:29:56;;;;;;;20.37;11.40;;;-5.70;99.90;;;;;;5002344;28;20235;-77
2022/11/19 02:32:30;;;;;;;17.57;11.27;;;-5.70;99.90;;;;;;4995035;28;20302;-76
2022/11/19 02:35:01;;;;;;;19.53;10.57;;;-5.80;99.90;;;;;;5013468;28;20231;-76
2022/11/19 02:37:37;;;;;;;21.77;11.27;;;-5.80;99.90;;;;;;5018541;28;20752;-76
2022/11/19 02:40:09;;;;;;;21.07;12.10;;;-5.80;99.90;;;;;;5002454;28;20261;-76
2022/11/19 02:42:43;;;;;;;23.43;11.33;;;-5.90;99.90;;;;;;5006861;28;20830;-76
2022/11/19 02:45:15;;;;;;;17.03;10.30;;;-5.90;99.90;;;;;;5000047;28;20227;-76
2022/11/19 02:47:47;;;;;;;17.10;9.47;;;-5.90;99.90;;;;;;5004280;28;20227;-77
2022/11/19 02:50:17;;;;;;;14.40;9.83;;;-6.00;99.90;;;;;;4992298;28;20223;-76
2022/11/19 02:52:46;;;;;;;13.47;7.30;;;-6.00;99.90;;;;;;4990959;28;20247;-77
2022/11/19 02:55:13;;;;;;;13.63;8.37;;;-6.00;99.90;;;;;;4996360;28;20239;-76
2022/11/19 02:57:42;;;;;;;12.07;8.17;;;-6.00;99.90;;;;;;4990482;28;20230;-76
2022/11/19 03:05:58;;;;;;;22.53;12.27;;;-6.00;99.90;;;;;;4997981;28;21067;-77
2022/11/19 03:08:25;;;;;;;20.10;11.67;;;-6.00;99.90;;;;;;4993766;28;20962;-77
2022/11/19 03:11:10;;;;;;;15.77;11.13;;;-6.00;99.90;;;;;;4983105;28;20228;-76
2022/11/19 03:16:42;;;;;;;17.63;11.37;;;-6.00;99.90;;;;;;5006249;28;20309;-77
2022/11/19 03:19:23;;;;;;;16.07;9.83;;;-6.00;99.90;;;;;;5009536;28;20314;-77
2022/11/19 03:21:54;;;;;;;18.30;10.80;;;-6.00;99.90;;;;;;4997439;28;20755;-77
2022/11/19 03:24:25;;;;;;;16.00;9.53;;;-6.00;99.90;;;;;;5009028;28;20231;-77
2022/11/19 03:26:56;;;;;;;16.13;9.83;;;-6.00;99.90;;;;;;5002542;28;20227;-77
2022/11/19 03:29:26;;;;;;;13.27;8.50;;;-6.00;99.90;;;;;;5009939;28;20223;-76
2022/11/19 03:32:00;;;;;;;13.57;8.90;;;-6.00;99.90;;;;;;5007493;28;20232;-77
2022/11/19 03:34:33;;;;;;;13.83;8.10;;;-6.00;99.90;;;;;;5006057;28;20232;-77
2022/11/19 03:37:02;;;;;;;12.97;7.37;;;-6.00;99.90;;;;;;5011182;28;20231;-76
2022/11/19 03:39:29;;;;;;;17.07;9.83;;;-6.00;99.90;;;;;;4996308;28;20830;-76
2022/11/19 03:41:57;;;;;;;14.37;8.40;;;-6.00;99.90;;;;;;5004670;28;20226;-77
2022/11/19 03:44:28;;;;;;;13.60;7.63;;;-6.00;99.90;;;;;;5008994;28;20655;-76
2022/11/19 03:46:59;;;;;;;11.23;7.00;;;-6.00;99.90;;;;;;5007974;28;20223;-77
2022/11/19 03:49:31;;;;;;;11.27;7.23;;;-6.00;99.90;;;;;;5005813;28;20336;-77
2022/11/19 03:52:04;;;;;;;12.73;7.80;;;-6.00;99.90;;;;;;5008102;28;20225;-76
2022/11/19 03:54:31;;;;;;;12.60;6.93;;;-6.00;99.90;;;;;;5007685;28;20266;-76
2022/11/19 03:56:59;;;;;;;11.03;7.27;;;-6.00;99.90;;;;;;5017358;28;20657;-77
2022/11/19 03:59:27;;;;;;;10.97;6.63;;;-6.00;99.90;;;;;;5020989;28;20355;-77
2022/11/19 04:01:56;;;;;;;10.03;6.77;;;-6.00;99.90;;;;;;5002980;28;20218;-77
2022/11/19 04:04:37;;;;;;;9.53;6.20;;;-6.00;99.90;;;;;;5012992;28;20237;-77
2022/11/19 04:07:11;;;;;;;9.87;6.40;;;-6.00;99.90;;;;;;5008043;28;20222;-77
2022/11/19 04:09:38;;;;;;;8.50;6.10;;;-6.00;99.90;;;;;;5013836;28;20227;-77
2022/11/19 04:12:07;;;;;;;10.07;6.27;;;-6.00;99.90;;;;;;5007171;28;20241;-77
2022/11/19 04:14:34;;;;;;;8.93;5.63;;;-6.00;99.90;;;;;;5004973;28;20923;-77
2022/11/19 04:17:00;;;;;;;16.40;12.10;;;-6.00;99.90;;;;;;5006028;28;20219;-77
2022/11/19 04:19:27;;;;;;;17.73;12.43;;;-6.00;99.90;;;;;;5009483;28;20276;-77
2022/11/19 04:21:54;;;;;;;9.90;6.73;;;-6.00;99.90;;;;;;5015699;28;20230;-77
2022/11/19 04:24:22;;;;;;;37.53;22.27;;;-6.00;99.90;;;;;;5007885;28;20222;-77
2022/11/19 04:26:51;;;;;;;34.40;18.17;;;-6.00;99.90;;;;;;5007893;28;20227;-78
2022/11/19 04:29:18;;;;;;;23.87;12.17;;;-6.00;99.90;;;;;;5012530;28;20256;-77
2022/11/19 04:31:44;;;;;;;12.97;8.00;;;-6.00;99.90;;;;;;5008213;28;20239;-78
2022/11/19 04:34:11;;;;;;;21.03;11.27;;;-6.00;99.90;;;;;;5009882;28;21039;-77
2022/11/19 04:36:40;;;;;;;14.80;8.23;;;-6.10;99.90;;;;;;5015324;28;20234;-77
2022/11/19 04:39:07;;;;;;;12.03;6.70;;;-6.00;99.90;;;;;;5006251;28;20228;-77
2022/11/19 04:41:35;;;;;;;8.97;6.30;;;-6.00;99.90;;;;;;5006331;28;20227;-77
2022/11/19 04:44:02;;;;;;;11.50;5.50;;;-6.00;99.90;;;;;;5001762;28;20657;-77
2022/11/19 04:46:29;;;;;;;23.50;11.97;;;-6.00;99.90;;;;;;4999689;28;20229;-78
2022/11/19 04:48:56;;;;;;;71.70;39.03;;;-6.00;99.90;;;;;;5009554;28;20660;-77
2022/11/19 04:51:22;;;;;;;26.07;13.43;;;-5.90;99.90;;;;;;5003789;28;20227;-77
2022/11/19 04:53:49;;;;;;;18.63;8.77;;;-5.90;99.90;;;;;;5007541;28;20236;-78
2022/11/19 04:56:16;;;;;;;13.73;7.97;;;-5.90;99.90;;;;;;5006452;28;20235;-77
2022/11/19 04:58:44;;;;;;;22.40;13.97;;;-5.90;99.90;;;;;;5005162;28;20237;-77
2022/11/19 05:01:10;;;;;;;29.60;19.27;;;-5.90;99.90;;;;;;4992947;28;20231;-76
2022/11/19 05:03:37;;;;;;;23.50;16.33;;;-5.90;99.90;;;;;;4997465;28;20688;-77
2022/11/19 05:06:04;;;;;;;22.53;15.23;;;-5.90;99.90;;;;;;5025513;28;20607;-77
2022/11/19 05:08:31;;;;;;;22.67;15.13;;;-5.90;99.90;;;;;;5002201;28;20240;-77
2022/11/19 05:10:57;;;;;;;27.70;19.17;;;-5.90;99.90;;;;;;4999919;28;20716;-77
2022/11/19 05:13:24;;;;;;;21.27;13.63;;;-5.90;99.90;;;;;;5006542;28;20240;-76
2022/11/19 05:15:52;;;;;;;19.77;10.40;;;-5.90;99.90;;;;;;5024226;28;20239;-76
2022/11/19 05:18:19;;;;;;;13.20;8.97;;;-5.90;99.90;;;;;;5003184;28;20235;-76
2022/11/19 05:20:47;;;;;;;10.17;7.57;;;-5.90;99.90;;;;;;4999590;28;20219;-76
2022/11/19 05:23:13;;;;;;;9.60;6.77;;;-5.90;99.90;;;;;;4999377;28;20222;-77
2022/11/19 05:25:40;;;;;;;10.00;6.80;;;-5.90;99.90;;;;;;5017568;28;20231;-78
2022/11/19 05:28:07;;;;;;;12.20;6.90;;;-5.90;99.90;;;;;;5006564;28;20241;-78
2022/11/19 05:30:34;;;;;;;12.50;7.23;;;-5.90;99.90;;;;;;5015567;28;20228;-78
2022/11/19 05:33:02;;;;;;;10.73;6.40;;;-5.90;99.90;;;;;;5010056;28;20826;-78
2022/11/19 05:35:29;;;;;;;8.80;5.80;;;-5.90;99.90;;;;;;4986318;28;20226;-79
2022/11/19 05:37:56;;;;;;;10.50;5.97;;;-5.90;99.90;;;;;;4986160;28;20227;-79
2022/11/19 05:40:23;;;;;;;14.63;10.93;;;-5.90;99.90;;;;;;4984290;28;20226;-79
2022/11/19 05:42:49;;;;;;;13.93;9.90;;;-5.80;99.90;;;;;;4977159;28;20915;-78
2022/11/19 05:45:16;;;;;;;11.13;6.43;;;-5.80;99.90;;;;;;4979054;28;20235;-78
2022/11/19 05:47:43;;;;;;;9.37;6.63;;;-5.70;99.90;;;;;;4991544;28;20225;-78
2022/11/19 05:50:11;;;;;;;11.97;7.03;;;-5.60;99.90;;;;;;5005352;28;20586;-78
2022/11/19 05:52:37;;;;;;;11.23;7.80;;;-5.50;99.90;;;;;;5003495;28;20317;-78
2022/11/19 05:55:05;;;;;;;9.30;7.07;;;-5.40;99.90;;;;;;4998374;28;20224;-80
2022/11/19 05:57:32;;;;;;;9.97;6.47;;;-5.20;99.90;;;;;;5001912;28;20229;-79
2022/11/19 05:59:58;;;;;;;13.07;7.00;;;-5.10;99.90;;;;;;5005573;28;20227;-79
2022/11/19 06:02:25;;;;;;;10.47;6.40;;;-5.00;99.90;;;;;;4999282;28;20236;-79
2022/11/19 06:04:52;;;;;;;13.47;9.13;;;-4.90;99.90;;;;;;5003546;28;20231;-79
2022/11/19 06:07:20;;;;;;;11.40;6.97;;;-4.80;99.90;;;;;;4996178;28;20238;-79
2022/11/19 06:09:46;;;;;;;11.30;7.07;;;-4.70;99.90;;;;;;5007867;28;20243;-80
2022/11/19 06:12:13;;;;;;;10.77;6.93;;;-4.60;99.90;;;;;;4999093;28;20229;-79
2022/11/19 06:14:40;;;;;;;10.00;7.60;;;-4.60;99.90;;;;;;4998141;28;20225;-79
2022/11/19 06:17:07;;;;;;;30.00;7.73;;;-4.60;99.90;;;;;;4994921;28;20231;-81
2022/11/19 06:19:37;;;;;;;11.60;7.47;;;-4.50;99.90;;;;;;4997300;28;20232;-79
2022/11/19 06:22:04;;;;;;;34.60;9.13;;;-4.50;99.90;;;;;;4988113;28;20236;-79
2022/11/19 06:24:32;;;;;;;12.23;6.97;;;-4.50;99.90;;;;;;4991666;28;21901;-80
2022/11/19 06:26:59;;;;;;;9.90;7.30;;;-4.50;99.90;;;;;;4992329;28;20688;-79
2022/11/19 06:29:25;;;;;;;12.87;7.90;;;-4.40;99.90;;;;;;4991759;28;20481;-80
2022/11/19 06:31:52;;;;;;;10.07;7.40;;;-4.40;99.90;;;;;;4994307;28;20225;-79
2022/11/19 06:34:19;;;;;;;21.00;8.93;;;-4.20;99.90;;;;;;4990363;28;20229;-79
2022/11/19 06:36:46;;;;;;;21.00;14.60;;;-4.20;99.90;;;;;;4992794;28;20275;-79
2022/11/19 06:39:12;;;;;;;13.27;9.60;;;-4.20;99.90;;;;;;4992696;28;20221;-79
2022/11/19 06:41:40;;;;;;;11.17;7.80;;;-4.20;99.90;;;;;;4998645;28;20235;-79
2022/11/19 06:44:07;;;;;;;10.83;7.07;;;-4.10;99.90;;;;;;4994444;28;20239;-80
2022/11/19 06:46:34;;;;;;;12.00;7.40;;;-4.20;99.90;;;;;;5007971;28;20233;-79
2022/11/19 06:49:02;;;;;;;13.63;9.93;;;-4.10;99.90;;;;;;4995010;28;20366;-80
2022/11/19 06:51:29;;;;;;;14.17;11.27;;;-4.10;99.90;;;;;;4991400;28;20233;-79
2022/11/19 06:53:56;;;;;;;11.87;8.27;;;-4.10;99.90;;;;;;4995754;28;20542;-79
2022/11/19 06:56:22;;;;;;;14.00;9.40;;;-4.10;99.90;;;;;;4989857;28;20242;-79
2022/11/19 06:58:50;;;;;;;16.90;11.57;;;-4.10;99.90;;;;;;4990872;28;20245;-79
2022/11/19 07:01:17;;;;;;;11.73;7.80;;;-4.00;99.90;;;;;;4992328;28;20233;-79
2022/11/19 07:03:43;;;;;;;10.60;7.00;;;-4.00;99.90;;;;;;4995068;28;20236;-78
2022/11/19 07:06:16;;;;;;;12.60;8.17;;;-4.00;99.90;;;;;;5025122;28;20711;-78
2022/11/19 07:08:43;;;;;;;23.60;7.83;;;-3.90;99.90;;;;;;5005344;28;20304;-79
2022/11/19 07:11:28;;;;;;;11.63;7.07;;;-3.90;99.90;;;;;;5004231;28;20229;-79
2022/11/19 07:14:02;;;;;;;18.07;7.63;;;-3.90;99.90;;;;;;5004031;28;20262;-79
2022/11/19 07:16:31;;;;;;;9.67;7.13;;;-3.90;99.90;;;;;;5002481;28;20781;-77
2022/11/19 07:18:58;;;;;;;17.57;7.80;;;-3.80;99.90;;;;;;5002652;28;20239;-78
2022/11/19 07:21:25;;;;;;;9.83;7.17;;;-3.80;99.90;;;;;;5021235;28;20581;-78
2022/11/19 07:23:52;;;;;;;13.77;7.70;;;-3.80;99.90;;;;;;5005705;28;20291;-78
2022/11/19 07:26:18;;;;;;;11.77;6.60;;;-3.80;99.90;;;;;;5003254;28;20259;-78
2022/11/19 07:28:45;;;;;;;11.90;8.80;;;-3.70;99.90;;;;;;5015004;28;20314;-78
2022/11/19 07:31:13;;;;;;;15.67;7.23;;;-3.70;99.90;;;;;;5023206;28;20747;-79
2022/11/19 07:33:41;;;;;;;11.43;7.50;;;-3.70;99.90;;;;;;5022065;28;20742;-78
2022/11/19 07:36:10;;;;;;;37.57;8.23;;;-3.60;99.90;;;;;;5008665;28;20251;-79
2022/11/19 07:38:37;;;;;;;9.33;6.97;;;-3.50;99.90;;;;;;5009037;28;20712;-77
2022/11/19 07:42:47;;;;;;;13.43;7.17;;;-3.40;99.90;;;;;;5008283;28;20511;-78
2022/11/19 07:43:52;;;;;;;11.00;7.30;;;-3.30;99.90;;;;;;5016533;28;20357;-79
2022/11/19 07:46:20;;;;;;;11.10;7.40;;;-3.20;99.90;;;;;;5015556;28;20963;-78
2022/11/19 07:48:46;;;;;;;10.50;7.20;;;-3.10;99.90;;;;;;5017009;28;20235;-80
2022/11/19 07:51:13;;;;;;;8.83;6.57;;;-3.00;99.90;;;;;;5011051;28;20226;-79
2022/11/19 07:53:41;;;;;;;8.67;6.37;;;-2.80;99.90;;;;;;5005296;28;20287;-79
2022/11/19 07:56:08;;;;;;;11.07;7.27;;;-2.70;99.90;;;;;;5010990;28;20234;-79
2022/11/19 07:58:35;;;;;;;20.07;8.37;;;-2.50;99.90;;;;;;5005084;28;20224;-79
2022/11/19 08:01:07;;;;;;;13.87;6.93;;;-2.30;99.90;;;;;;5003397;28;20243;-80
2022/11/19 08:03:40;;;;;;;9.97;6.97;;;-2.20;99.90;;;;;;5003161;28;20226;-80
2022/11/19 08:06:08;;;;;;;10.83;7.00;;;-1.90;99.90;;;;;;5002757;28;20224;-80
2022/11/19 08:08:35;;;;;;;10.00;7.10;;;-1.60;99.90;;;;;;5009373;28;20251;-80
2022/11/19 08:11:06;;;;;;;8.93;6.87;;;-1.40;99.90;;;;;;5003036;28;20224;-80
2022/11/19 08:13:34;;;;;;;11.33;6.63;;;-1.00;99.90;;;;;;5006685;28;20302;-80
2022/11/19 08:16:01;;;;;;;9.23;6.63;;;-0.70;99.90;;;;;;5008709;28;20221;-80
2022/11/19 08:18:27;;;;;;;11.23;6.83;;;-0.40;99.90;;;;;;5002685;28;20220;-79
2022/11/19 08:20:55;;;;;;;8.73;6.60;;;0.00;99.90;;;;;;5009825;28;20771;-78
2022/11/19 08:23:24;;;;;;;8.30;6.33;;;0.20;99.90;;;;;;5005234;28;20458;-80
2022/11/19 08:25:51;;;;;;;9.00;6.80;;;0.50;99.90;;;;;;5013541;28;20448;-78
2022/11/19 08:28:18;;;;;;;9.10;6.67;;;0.70;99.90;;;;;;5006818;28;20239;-79
2022/11/19 08:30:45;;;;;;;8.73;6.63;;;0.80;99.90;;;;;;5012447;28;20230;-79
2022/11/19 08:33:14;;;;;;;18.33;6.60;;;0.90;99.90;;;;;;5008685;28;20229;-79
2022/11/19 08:35:41;;;;;;;10.17;6.43;;;1.00;99.90;;;;;;5010398;28;20233;-79
2022/11/19 08:38:10;;;;;;;9.73;6.90;;;1.10;99.90;;;;;;5006265;28;20556;-79
2022/11/19 08:40:36;;;;;;;10.23;6.73;;;1.20;99.90;;;;;;5007491;28;20478;-81
2022/11/19 08:43:03;;;;;;;11.07;7.37;;;1.20;99.90;;;;;;5002964;28;20235;-78
2022/11/19 08:45:31;;;;;;;8.37;6.00;;;1.30;99.90;;;;;;5004446;28;20402;-80
2022/11/19 08:47:59;;;;;;;10.57;7.00;;;1.30;99.90;;;;;;5008310;28;20222;-79
2022/11/19 08:50:30;;;;;;;9.27;6.40;;;1.30;99.90;;;;;;5010739;28;20231;-79
2022/11/19 08:52:59;;;;;;;16.10;14.33;;;1.30;99.90;;;;;;5006908;28;20227;-79
2022/11/19 08:55:29;;;;;;;14.63;7.23;;;1.40;99.90;;;;;;5004285;28;20240;-78
2022/11/19 08:58:00;;;;;;;10.37;6.80;;;1.40;99.90;;;;;;5010332;28;20276;-80
2022/11/19 09:00:27;;;;;;;15.80;14.20;;;1.50;99.90;;;;;;5018058;28;20222;-83
2022/11/19 09:02:53;;;;;;;9.87;7.90;;;1.60;99.90;;;;;;4997264;28;20252;-82
2022/11/19 09:05:20;;;;;;;11.17;8.00;;;1.70;99.90;;;;;;5021971;28;20243;-78
2022/11/19 09:07:47;;;;;;;9.53;7.43;;;1.80;99.90;;;;;;5024079;28;20228;-76
2022/11/19 09:10:15;;;;;;;34.23;22.80;;;1.90;99.90;;;;;;5006677;28;20742;-77
2022/11/19 09:12:43;;;;;;;10.00;7.40;;;2.10;99.90;;;;;;5003982;28;20682;-77
2022/11/19 09:15:10;;;;;;;9.83;7.40;;;2.30;99.90;;;;;;5006575;28;20769;-77
2022/11/19 09:17:38;;;;;;;7.83;6.10;;;2.60;99.90;;;;;;4995279;28;20235;-77
2022/11/19 09:20:07;;;;;;;7.87;6.57;;;2.80;99.90;;;;;;5006302;28;20226;-77
2022/11/19 09:22:33;;;;;;;28.77;18.77;;;3.10;99.90;;;;;;4997295;28;20938;-78
2022/11/19 09:25:00;;;;;;;9.70;8.70;;;3.20;99.90;;;;;;5006779;28;20698;-79
2022/11/19 09:27:27;;;;;;;10.43;8.80;;;3.40;99.90;;;;;;4999780;28;20230;-78
2022/11/19 09:29:55;;;;;;;25.10;15.60;;;3.40;99.90;;;;;;4995884;28;20222;-77
2022/11/19 09:32:22;;;;;;;9.17;6.47;;;3.40;99.90;;;;;;4999744;28;20237;-78
2022/11/19 09:34:48;;;;;;;9.63;6.10;;;3.40;99.90;;;;;;4995056;28;20809;-78
2022/11/19 09:37:15;;;;;;;8.50;6.13;;;3.40;99.90;;;;;;4996887;28;20229;-78
2022/11/19 09:39:42;;;;;;;10.73;7.70;;;3.40;99.90;;;;;;5002826;28;20253;-77
2022/11/19 09:42:15;;;;;;;7.23;5.60;;;3.40;99.90;;;;;;5000564;28;20227;-78
2022/11/19 09:44:57;;;;;;;11.80;9.40;;;3.40;99.90;;;;;;4997671;28;20232;-77
2022/11/19 09:47:39;;;;;;;7.97;6.30;;;3.50;99.90;;;;;;4991229;28;20230;-78
2022/11/19 09:50:15;;;;;;;38.50;28.53;;;3.70;99.90;;;;;;4997752;28;20237;-77
2022/11/19 09:52:45;;;;;;;15.60;10.97;;;3.90;99.90;;;;;;4998373;28;20227;-78
2022/11/19 09:55:18;;;;;;;13.73;8.93;;;4.10;99.90;;;;;;4994833;28;20233;-77
2022/11/19 09:57:49;;;;;;;13.77;9.80;;;4.30;99.90;;;;;;4999120;28;20526;-78
2022/11/19 10:00:21;;;;;;;16.30;11.50;;;4.50;99.90;;;;;;4993823;28;20238;-78
2022/11/19 10:02:48;;;;;;;7.47;5.73;;;4.70;99.90;;;;;;5004135;28;20222;-78
2022/11/19 10:05:16;;;;;;;33.83;21.43;;;4.90;99.90;;;;;;5005458;28;20530;-78
2022/11/19 10:07:55;;;;;;;54.70;33.20;;;5.00;99.90;;;;;;5004298;28;20228;-78
2022/11/19 10:10:34;;;;;;;27.20;17.17;;;5.10;99.90;;;;;;5002981;28;20227;-77
2022/11/19 10:13:18;;;;;;;8.80;6.47;;;5.10;99.90;;;;;;4998515;28;20315;-77
2022/11/19 10:16:02;;;;;;;8.73;5.20;;;5.20;99.90;;;;;;5002152;28;20309;-77
2022/11/19 10:18:38;;;;;;;6.63;4.80;;;5.30;99.90;;;;;;4997158;28;20276;-78
2022/11/19 10:21:08;;;;;;;11.10;7.27;;;5.30;99.90;;;;;;4995052;28;20829;-78
2022/11/19 10:23:46;;;;;;;52.97;35.23;;;5.40;99.90;;;;;;4998333;28;20223;-78
2022/11/19 10:26:15;;;;;;;10.33;7.00;;;5.40;99.90;;;;;;5005237;28;20218;-78
2022/11/19 10:28:49;;;;;;;8.20;5.50;;;5.50;99.90;;;;;;5007955;28;20232;-78
2022/11/19 10:31:24;;;;;;;5.57;4.70;;;5.50;99.90;;;;;;5006193;28;20219;-78
2022/11/19 10:33:56;;;;;;;6.37;4.47;;;5.50;99.90;;;;;;4999221;28;20439;-78
2022/11/19 10:36:30;;;;;;;6.00;4.60;;;5.50;99.90;;;;;;5000825;28;20611;-78
2022/11/19 10:39:02;;;;;;;6.57;4.60;;;5.50;99.90;;;;;;5009440;28;20314;-78
2022/11/19 10:41:34;;;;;;;6.63;4.43;;;5.50;99.90;;;;;;5012035;28;20617;-78
2022/11/19 10:44:35;;;;;;;6.73;3.90;;;5.50;99.90;;;;;;5006673;28;20228;-77
2022/11/19 10:47:05;;;;;;;27.63;18.93;;;5.50;99.90;;;;;;4997082;28;20229;-78
2022/11/19 10:49:37;;;;;;;9.07;6.73;;;5.50;99.90;;;;;;5002756;28;20233;-78
2022/11/19 10:52:04;;;;;;;6.70;5.00;;;5.50;99.90;;;;;;5008176;28;20715;-78
2022/11/19 10:54:32;;;;;;;7.50;4.33;;;5.50;99.90;;;;;;5000109;28;20233;-78
2022/11/19 10:57:00;;;;;;;6.20;4.27;;;5.50;99.90;;;;;;5004300;28;20257;-78
2022/11/19 10:59:30;;;;;;;5.37;4.33;;;5.40;99.90;;;;;;5006081;28;20320;-78
2022/11/19 11:02:01;;;;;;;5.30;3.87;;;5.40;99.90;;;;;;4995680;28;20260;-78
2022/11/19 11:04:32;;;;;;;5.20;3.57;;;5.30;99.90;;;;;;5009499;28;20571;-78
2022/11/19 11:07:03;;;;;;;11.97;8.63;;;5.30;99.90;;;;;;5003497;28;20229;-78
2022/11/19 11:09:32;;;;;;;6.20;4.33;;;5.20;99.90;;;;;;5009392;28;20226;-78
2022/11/19 11:14:54;;;;;;;6.30;3.70;;;5.10;99.90;;;;;;5003741;28;20248;-78
2022/11/19 11:17:24;;;;;;;6.53;4.43;;;5.00;99.90;;;;;;5005662;28;20222;-78
2022/11/19 11:20:01;;;;;;;6.03;4.03;;;5.00;99.90;;;;;;5000526;28;20219;-78
2022/11/19 11:22:28;;;;;;;6.33;3.93;;;5.00;99.90;;;;;;5007304;28;20250;-78
2022/11/19 11:24:56;;;;;;;7.10;3.63;;;5.00;99.90;;;;;;4994619;28;20218;-78
2022/11/19 11:27:27;;;;;;;4.57;3.53;;;4.90;99.90;;;;;;4995879;28;20218;-79
2022/11/19 11:30:14;;;;;;;10.03;7.37;;;4.90;99.90;;;;;;5000470;28;20278;-78
2022/11/19 11:32:43;;;;;;;4.50;3.57;;;4.90;99.90;;;;;;4994111;28;20320;-78
2022/11/19 11:35:31;;;;;;;6.00;4.50;;;4.90;99.90;;;;;;5001215;28;20234;-78
2022/11/19 11:37:59;;;;;;;3.97;3.30;;;4.90;99.90;;;;;;4996570;28;20721;-78
2022/11/19 11:40:28;;;;;;;5.10;3.53;;;4.90;99.90;;;;;;5002546;28;20305;-78
2022/11/19 11:42:55;;;;;;;11.97;8.90;;;4.90;99.90;;;;;;4998348;28;20301;-78
2022/11/19 11:45:34;;;;;;;4.40;3.00;;;4.90;99.90;;;;;;5004958;28;20756;-78
2022/11/19 11:48:06;;;;;;;32.80;21.03;;;4.90;99.90;;;;;;4998156;28;20321;-79
2022/11/19 11:50:36;;;;;;;8.10;4.87;;;4.90;99.90;;;;;;4995224;28;20238;-79
2022/11/19 11:53:09;;;;;;;4.00;2.80;;;4.90;99.90;;;;;;5003023;28;20217;-78
2022/11/19 11:55:37;;;;;;;7.40;4.83;;;4.90;99.90;;;;;;5002260;28;20584;-79
2022/11/19 11:58:06;;;;;;;4.33;2.90;;;4.90;99.90;;;;;;5018215;28;20225;-78
2022/11/19 12:00:35;;;;;;;3.77;2.70;;;4.80;99.90;;;;;;5004141;28;20710;-78
2022/11/19 12:03:05;;;;;;;4.20;2.73;;;4.80;99.90;;;;;;4995540;28;20730;-78
2022/11/19 12:05:56;;;;;;;8.17;5.83;;;4.80;99.90;;;;;;5006389;28;20223;-78
2022/11/19 12:08:46;;;;;;;4.93;3.53;;;4.80;99.90;;;;;;5004931;28;20221;-79
2022/11/19 12:11:20;;;;;;;2.80;2.30;;;4.80;99.90;;;;;;5000997;28;20224;-78
2022/11/19 12:14:02;;;;;;;4.17;2.80;;;4.80;99.90;;;;;;5007257;28;20226;-78
2022/11/19 12:16:40;;;;;;;4.73;3.20;;;4.80;99.90;;;;;;4998633;28;20222;-78
2022/11/19 12:19:23;;;;;;;43.07;25.90;;;4.80;99.90;;;;;;5005537;28;20296;-78
2022/11/19 12:22:00;;;;;;;9.97;6.00;;;4.80;99.90;;;;;;5007503;28;20786;-78
2022/11/19 12:24:42;;;;;;;3.57;2.20;;;4.80;99.90;;;;;;5003594;28;20233;-81
2022/11/19 12:27:19;;;;;;;3.40;1.80;;;4.80;99.90;;;;;;5000701;28;20308;-77
2022/11/19 12:29:58;;;;;;;3.33;2.27;;;4.80;99.90;;;;;;4999304;28;20225;-77
2022/11/19 12:32:49;;;;;;;4.97;2.03;;;4.70;99.90;;;;;;5002309;28;20734;-77
2022/11/19 12:35:28;;;;;;;3.17;2.20;;;4.70;99.90;;;;;;4996779;28;20236;-77
2022/11/19 12:38:21;;;;;;;2.40;1.90;;;4.70;99.90;;;;;;5004304;28;20235;-77
2022/11/19 12:40:58;;;;;;;10.40;5.93;;;4.60;99.90;;;;;;4986366;28;20238;-77
2022/11/19 12:43:47;;;;;;;9.07;5.10;;;4.60;99.90;;;;;;5007097;28;20308;-77
2022/11/19 12:46:24;;;;;;;4.73;2.83;;;4.60;99.90;;;;;;5003347;28;20782;-77
2022/11/19 12:49:02;;;;;;;3.90;1.63;;;4.70;99.90;;;;;;5013226;28;20489;-77
2022/11/19 12:51:38;;;;;;;4.90;2.80;;;4.80;99.90;;;;;;5006389;28;20232;-77
2022/11/19 12:54:40;;;;;;;11.03;6.47;;;4.80;99.90;;;;;;5012200;28;20226;-77
2022/11/19 12:57:22;;;;;;;2.93;2.00;;;4.80;99.90;;;;;;4991878;28;20218;-77
2022/11/19 13:00:10;;;;;;;3.90;2.20;;;4.80;99.90;;;;;;5004147;28;20246;-77
2022/11/19 13:02:47;;;;;;;8.87;4.13;;;4.80;99.90;;;;;;5000739;28;21205;-77
2022/11/19 13:05:18;;;;;;;2.83;1.93;;;4.80;99.90;;;;;;5001073;28;20677;-77
2022/11/19 13:07:49;;;;;;;7.97;4.00;;;4.70;99.90;;;;;;5007061;28;20878;-77
2022/11/19 13:10:21;;;;;;;2.97;2.07;;;4.70;99.90;;;;;;5023067;28;20241;-77
2022/11/19 13:12:50;;;;;;;2.63;2.00;;;4.70;99.90;;;;;;4999749;28;20228;-77
2022/11/19 13:15:20;;;;;;;5.30;2.10;;;4.60;99.90;;;;;;5007017;28;20237;-77